createdAt,value
2023-03-12T00:00:38.800Z,1.43
2023-03-12T00:04:03.887Z,1.73
2023-03-12T00:07:15.848Z,1.40
2023-03-12T00:10:28.858Z,1.80
2023-03-12T00:13:43.847Z,2.53
2023-03-12T00:16:55.804Z,1.80
2023-03-12T00:20:09.872Z,3.33
2023-03-12T00:23:21.849Z,1.70
2023-03-12T00:26:33.882Z,2.37
2023-03-12T00:29:45.916Z,2.30
2023-03-12T00:32:57.880Z,2.27
2023-03-12T00:36:23.915Z,2.33
2023-03-12T00:39:23.885Z,2.10
2023-03-12T00:42:36.015Z,1.75
2023-03-12T00:45:35.912Z,2.10
2023-03-12T00:48:59.961Z,2.45
2023-03-12T00:52:28.956Z,2.03
2023-03-12T00:55:40.920Z,1.80
2023-03-12T00:59:04.962Z,3.80
2023-03-12T01:02:32.049Z,1.40
2023-03-12T01:05:33.485Z,1.87
2023-03-12T01:08:59.059Z,1.73
2023-03-12T01:11:59.081Z,2.00
2023-03-12T01:15:23.090Z,2.20
2023-03-12T01:18:46.995Z,1.85
2023-03-12T01:21:59.017Z,2.20
2023-03-12T01:25:13.065Z,1.90
2023-03-12T01:28:29.077Z,1.70
2023-03-12T01:31:44.082Z,2.30
2023-03-12T01:35:09.146Z,2.77
2023-03-12T01:38:12.091Z,1.97
2023-03-12T01:41:38.105Z,2.10
2023-03-12T01:44:38.082Z,2.93
2023-03-12T01:47:51.102Z,1.90
2023-03-12T01:51:15.116Z,2.10
2023-03-12T01:54:39.188Z,2.97
2023-03-12T01:58:05.180Z,2.10
2023-03-12T02:01:18.201Z,1.70
2023-03-12T02:04:43.199Z,3.13
2023-03-12T02:07:55.259Z,2.07
2023-03-12T02:11:19.169Z,1.73
2023-03-12T02:14:45.140Z,3.87
2023-03-12T02:17:58.191Z,2.05
2023-03-12T02:21:11.184Z,3.13
2023-03-12T02:24:37.298Z,1.70
2023-03-12T02:28:02.232Z,2.25
2023-03-12T02:31:27.285Z,1.35
2023-03-12T02:34:51.270Z,1.63
2023-03-12T02:38:15.384Z,1.97
2023-03-12T02:41:44.016Z,2.23
2023-03-12T02:45:13.364Z,3.00
2023-03-12T02:48:37.325Z,4.45
2023-03-12T02:51:49.340Z,1.60
2023-03-12T02:55:01.363Z,2.33
2023-03-12T02:58:25.299Z,1.67
2023-03-12T03:01:51.321Z,2.00
2023-03-12T03:05:07.389Z,2.90
2023-03-12T03:08:31.373Z,3.90
2023-03-12T03:11:55.401Z,1.70
2023-03-12T03:15:07.404Z,4.57
2023-03-12T03:18:36.432Z,2.23
2023-03-12T03:21:48.405Z,2.20
2023-03-12T03:25:03.418Z,2.07
2023-03-12T03:28:27.393Z,1.90
2023-03-12T03:31:51.415Z,2.00
2023-03-12T03:35:16.447Z,3.87
2023-03-12T03:38:28.435Z,2.47
2023-03-12T03:41:40.494Z,2.47
2023-03-12T03:44:53.493Z,2.80
2023-03-12T03:48:05.548Z,2.20
2023-03-12T03:51:32.581Z,2.05
2023-03-12T03:54:56.507Z,3.47
2023-03-12T03:58:08.532Z,2.10
2023-03-12T04:01:32.523Z,2.17
2023-03-12T04:04:45.584Z,3.55
2023-03-12T04:08:12.627Z,1.93
2023-03-12T04:11:39.576Z,3.93
2023-03-12T04:15:06.593Z,2.45
2023-03-12T04:18:19.674Z,2.73
2023-03-12T04:21:33.621Z,2.33
2023-03-12T04:25:00.569Z,2.35
2023-03-12T04:28:12.662Z,3.17
2023-03-12T04:31:36.780Z,4.13
2023-03-12T04:34:48.688Z,4.03
2023-03-12T04:38:00.627Z,4.40
2023-03-12T04:41:26.608Z,4.67
2023-03-12T04:44:39.605Z,3.70
2023-03-12T04:48:07.665Z,3.10
2023-03-12T04:51:20.701Z,2.87
2023-03-12T04:54:46.784Z,3.40
2023-03-12T04:58:10.710Z,4.10
2023-03-12T05:01:36.764Z,3.07
2023-03-12T05:05:00.712Z,3.03
2023-03-12T05:08:27.693Z,3.27
2023-03-12T05:11:51.787Z,2.90
2023-03-12T05:15:17.739Z,3.57
2023-03-12T05:18:29.742Z,2.77
2023-03-12T05:21:56.804Z,4.90
2023-03-12T05:25:09.764Z,3.00
2023-03-12T05:28:21.803Z,3.23
2023-03-12T05:31:48.844Z,2.85
2023-03-12T05:35:00.867Z,3.03
2023-03-12T05:38:12.869Z,3.27
2023-03-12T05:41:39.847Z,5.80
2023-03-12T05:44:52.793Z,3.17
2023-03-12T05:48:21.854Z,3.07
2023-03-12T05:51:45.811Z,4.50
2023-03-12T05:54:57.875Z,4.03
2023-03-12T05:58:09.921Z,3.15
2023-03-12T06:01:36.899Z,4.23
2023-03-12T06:05:03.858Z,6.50
2023-03-12T06:08:27.895Z,3.80
2023-03-12T06:11:51.885Z,6.47
2023-03-12T06:15:03.960Z,5.80
2023-03-12T06:18:15.855Z,3.27
2023-03-12T06:21:41.910Z,4.43
2023-03-12T06:24:54.982Z,5.83
2023-03-12T06:28:06.981Z,3.50
2023-03-12T06:31:30.998Z,3.80
2023-03-12T06:34:30.973Z,4.20
2023-03-12T06:37:57.017Z,4.60
2023-03-12T06:40:57.052Z,8.20
2023-03-12T06:44:08.983Z,6.25
2023-03-12T06:47:21.008Z,5.07
2023-03-12T06:50:33.967Z,5.50
2023-03-12T06:53:51.095Z,7.80
2023-03-12T06:57:03.041Z,4.60
2023-03-12T07:00:03.062Z,5.33
2023-03-12T07:03:27.052Z,4.50
2023-03-12T07:06:39.107Z,3.57
2023-03-12T07:10:08.074Z,5.10
2023-03-12T07:13:08.115Z,4.30
2023-03-12T07:16:24.201Z,4.25
2023-03-12T07:19:24.162Z,5.70
2023-03-12T07:22:36.075Z,5.20
2023-03-12T07:25:50.121Z,4.03
2023-03-12T07:29:03.129Z,4.03
2023-03-12T07:32:03.182Z,5.47
2023-03-12T07:35:27.307Z,4.50
2023-03-12T07:38:39.202Z,6.87
2023-03-12T07:42:05.196Z,8.07
2023-03-12T07:45:18.313Z,6.25
2023-03-12T07:48:44.387Z,3.67
2023-03-12T07:51:43.271Z,3.87
2023-03-12T07:54:55.281Z,6.03
2023-03-12T07:58:08.447Z,3.80
2023-03-12T08:01:20.308Z,4.10
2023-03-12T08:04:32.436Z,6.35
2023-03-12T08:07:32.453Z,4.03
2023-03-12T08:10:44.318Z,3.73
2023-03-12T08:13:58.397Z,6.27
2023-03-12T08:17:22.333Z,4.07
2023-03-12T08:20:23.327Z,5.27
2023-03-12T08:23:48.660Z,4.50
2023-03-12T08:26:48.354Z,3.50
2023-03-12T08:30:13.333Z,4.63
2023-03-12T08:33:13.408Z,4.23
2023-03-12T08:36:26.325Z,3.77
2023-03-12T08:39:26.327Z,4.03
2023-03-12T08:42:51.336Z,6.43
2023-03-12T08:46:10.364Z,5.05
2023-03-12T08:49:20.440Z,4.20
2023-03-12T08:52:23.421Z,4.53
2023-03-12T08:55:47.421Z,4.87
2023-03-12T08:58:47.443Z,5.27
2023-03-12T09:02:13.420Z,4.70
2023-03-12T09:05:13.421Z,3.50
2023-03-12T09:08:25.401Z,3.55
2023-03-12T09:11:37.487Z,3.53
2023-03-12T09:15:03.038Z,4.40
2023-03-12T09:18:03.548Z,4.53
2023-03-12T09:21:28.454Z,5.40
2023-03-12T09:24:28.514Z,6.55
2023-03-12T09:27:40.531Z,3.37
2023-03-12T09:30:52.510Z,8.53
2023-03-12T09:34:18.607Z,4.07
2023-03-12T09:37:50.544Z,4.93
2023-03-12T09:41:15.696Z,7.57
2023-03-12T09:44:27.539Z,4.20
2023-03-12T09:47:51.561Z,3.30
2023-03-12T09:51:05.554Z,3.63
2023-03-12T09:54:30.579Z,3.37
2023-03-12T09:57:45.681Z,4.50
2023-03-12T10:00:57.596Z,5.73
2023-03-12T10:04:24.674Z,5.10
2023-03-12T10:07:38.667Z,5.63
2023-03-12T10:11:08.669Z,3.60
2023-03-12T10:14:34.681Z,3.33
2023-03-12T10:18:07.730Z,5.80
2023-03-12T10:21:25.680Z,4.03
2023-03-12T10:24:54.653Z,4.70
2023-03-12T10:28:06.721Z,3.87
2023-03-12T10:31:30.685Z,4.43
2023-03-12T10:34:43.750Z,5.07
2023-03-12T10:38:07.713Z,3.47
2023-03-12T10:41:20.731Z,4.45
2023-03-12T10:44:38.691Z,4.70
2023-03-12T10:47:52.748Z,4.10
2023-03-12T10:51:24.762Z,3.90
2023-03-12T10:54:45.804Z,3.67
2023-03-12T10:58:14.817Z,4.25
2023-03-12T11:01:26.802Z,6.05
2023-03-12T11:04:50.825Z,4.45
2023-03-12T11:08:05.792Z,4.00
2023-03-12T11:11:29.793Z,3.67
2023-03-12T11:14:43.879Z,4.07
2023-03-12T11:18:10.811Z,6.07
2023-03-12T11:21:40.854Z,5.90
2023-03-12T11:25:06.858Z,4.85
2023-03-12T11:28:18.971Z,4.67
2023-03-12T11:31:47.210Z,5.97
2023-03-12T11:34:58.888Z,4.47
2023-03-12T11:38:23.909Z,5.25
2023-03-12T11:41:39.934Z,5.40
2023-03-12T11:45:04.934Z,5.57
2023-03-12T11:48:22.023Z,4.80
2023-03-12T11:51:48.015Z,4.03
2023-03-12T11:55:07.036Z,4.93
2023-03-12T11:58:38.964Z,5.00
2023-03-12T12:01:51.963Z,4.60
2023-03-12T12:05:39.003Z,5.83
2023-03-12T12:08:53.922Z,5.93
2023-03-12T12:12:22.065Z,4.47
2023-03-12T12:15:35.988Z,4.83
2023-03-12T12:19:09.444Z,5.00
2023-03-12T12:22:26.057Z,4.77
2023-03-12T12:25:51.018Z,5.30
2023-03-12T12:29:15.146Z,5.40
2023-03-12T12:32:39.148Z,8.47
2023-03-12T12:35:52.116Z,6.23
2023-03-12T12:39:20.200Z,5.10
2023-03-12T12:42:32.161Z,6.43
2023-03-12T12:46:00.213Z,5.13
2023-03-12T12:49:13.101Z,7.20
2023-03-12T12:52:40.168Z,5.83
2023-03-12T12:55:54.196Z,4.77
2023-03-12T12:59:32.179Z,5.10
2023-03-12T13:02:44.172Z,4.87
2023-03-12T13:06:12.225Z,5.80
2023-03-12T13:09:25.170Z,8.90
2023-03-12T13:12:51.168Z,9.07
2023-03-12T13:16:03.311Z,9.10
2023-03-12T13:19:28.236Z,8.20
2023-03-12T13:22:45.348Z,8.90
2023-03-12T13:26:16.235Z,8.03
2023-03-12T13:29:39.249Z,10.40
2023-03-12T13:33:10.322Z,11.83
2023-03-12T13:36:29.301Z,12.00
2023-03-12T13:39:56.263Z,8.77
2023-03-12T13:43:12.325Z,14.00
2023-03-12T13:46:47.373Z,12.55
2023-03-12T13:49:59.386Z,9.63
2023-03-12T13:53:25.360Z,14.77
2023-03-12T13:56:41.340Z,12.80
2023-03-12T14:00:08.360Z,9.00
2023-03-12T14:03:40.315Z,14.57
2023-03-12T14:06:50.368Z,16.13
2023-03-12T14:10:20.407Z,17.30
2023-03-12T14:13:40.333Z,14.97
2023-03-12T14:17:05.381Z,17.17
2023-03-12T14:20:19.385Z,14.35
2023-03-12T14:23:43.449Z,13.90
2023-03-12T14:26:55.484Z,16.70
2023-03-12T14:30:20.455Z,21.63
2023-03-12T14:33:32.504Z,12.93
2023-03-12T14:37:02.540Z,18.10
2023-03-12T14:40:17.427Z,18.40
2023-03-12T14:43:45.608Z,14.35
2023-03-12T14:46:45.633Z,15.07
2023-03-12T14:50:09.487Z,9.13
2023-03-12T14:53:22.557Z,14.73
2023-03-12T14:56:47.582Z,19.93
2023-03-12T14:59:59.594Z,9.63
2023-03-12T15:03:24.534Z,16.33
2023-03-12T15:06:38.608Z,14.90
2023-03-12T15:10:05.813Z,13.67
2023-03-12T15:13:17.584Z,11.63
2023-03-12T15:16:44.586Z,15.57
2023-03-12T15:19:56.654Z,11.25
2023-03-12T15:23:20.606Z,14.03
2023-03-12T15:26:39.650Z,16.83
2023-03-12T15:30:05.588Z,15.80
2023-03-12T15:33:28.665Z,19.03
2023-03-12T15:36:53.837Z,19.37
2023-03-12T15:40:05.655Z,23.43
2023-03-12T15:43:30.653Z,20.07
2023-03-12T15:46:42.819Z,22.63
2023-03-12T15:50:07.719Z,13.07
2023-03-12T15:53:26.767Z,19.43
2023-03-12T15:56:50.738Z,22.07
2023-03-12T16:00:04.697Z,15.83
2023-03-12T16:03:28.803Z,16.57
2023-03-12T16:06:41.790Z,14.10
2023-03-12T16:10:05.765Z,16.53
2023-03-12T16:13:18.743Z,19.83
2023-03-12T16:16:44.755Z,15.33
2023-03-12T16:19:56.726Z,21.75
2023-03-12T16:23:10.747Z,24.77
2023-03-12T16:26:22.820Z,16.43
2023-03-12T16:29:46.775Z,24.70
2023-03-12T16:33:01.353Z,17.27
2023-03-12T16:36:16.796Z,16.77
2023-03-12T16:39:28.892Z,10.10
2023-03-12T16:42:40.877Z,21.30
2023-03-12T16:45:52.855Z,18.70
2023-03-12T16:49:17.848Z,17.93
2023-03-12T16:52:38.939Z,11.50
2023-03-12T16:56:04.903Z,17.43
2023-03-12T16:59:16.935Z,16.50
2023-03-12T17:02:41.934Z,14.83
2023-03-12T17:05:56.508Z,13.90
2023-03-12T17:09:10.944Z,16.97
2023-03-12T17:12:11.038Z,14.43
2023-03-12T17:15:37.016Z,12.17
2023-03-12T17:18:39.354Z,17.90
2023-03-12T17:22:02.967Z,11.50
2023-03-12T17:25:03.043Z,20.30
2023-03-12T17:28:27.930Z,15.17
2023-03-12T17:31:28.031Z,16.83
2023-03-12T17:34:52.040Z,16.37
2023-03-12T17:38:09.036Z,16.23
2023-03-12T17:41:26.994Z,17.20
2023-03-12T17:44:22.057Z,21.23
2023-03-12T17:47:35.077Z,10.63
2023-03-12T17:50:35.089Z,23.10
2023-03-12T17:54:01.129Z,20.33
2023-03-12T17:57:04.072Z,18.03
2023-03-12T18:00:19.099Z,15.10
2023-03-12T18:03:34.178Z,13.80
2023-03-12T18:06:34.156Z,20.50
2023-03-12T18:10:01.203Z,18.67
2023-03-12T18:13:01.161Z,9.00
2023-03-12T18:16:13.188Z,17.47
2023-03-12T18:19:13.108Z,16.77
2023-03-12T18:22:26.214Z,13.27
2023-03-12T18:25:43.213Z,18.57
2023-03-12T18:28:58.150Z,17.07
2023-03-12T18:31:59.165Z,14.77
2023-03-12T18:35:11.160Z,14.17
2023-03-12T18:38:23.204Z,14.20
2023-03-12T18:41:49.273Z,18.20
2023-03-12T18:44:52.250Z,11.40
2023-03-12T18:48:04.243Z,15.97
2023-03-12T18:51:04.279Z,15.00
2023-03-12T18:54:19.287Z,14.23
2023-03-12T18:57:33.336Z,12.37
2023-03-12T19:00:46.294Z,15.50
2023-03-12T19:03:47.359Z,13.90
2023-03-12T19:07:00.335Z,11.57
2023-03-12T19:10:00.290Z,28.07
2023-03-12T19:13:26.305Z,13.50
2023-03-12T19:16:26.394Z,22.43
2023-03-12T19:19:38.307Z,15.50
2023-03-12T19:22:38.391Z,21.20
2023-03-12T19:25:51.330Z,12.33
2023-03-12T19:29:05.343Z,13.10
2023-03-12T19:32:19.963Z,18.07
2023-03-12T19:35:35.379Z,24.63
2023-03-12T19:39:02.372Z,14.40
2023-03-12T19:42:00.443Z,9.60
2023-03-12T19:45:27.429Z,17.30
2023-03-12T19:48:39.442Z,12.87
2023-03-12T19:52:03.500Z,23.30
2023-03-12T19:55:05.473Z,20.13
2023-03-12T19:58:28.474Z,19.80
2023-03-12T20:01:42.486Z,18.10
2023-03-12T20:04:55.554Z,11.60
2023-03-12T20:07:58.497Z,16.53
2023-03-12T20:11:26.482Z,16.07
2023-03-12T20:14:26.555Z,14.17
2023-03-12T20:17:51.548Z,11.20
2023-03-12T20:21:06.539Z,19.80
2023-03-12T20:24:19.540Z,14.97
2023-03-12T20:27:31.632Z,16.27
2023-03-12T20:30:59.521Z,19.90
2023-03-12T20:34:13.591Z,18.90
2023-03-12T20:37:25.602Z,15.73
2023-03-12T20:40:26.542Z,14.17
2023-03-12T20:43:38.604Z,20.37
2023-03-12T20:46:50.649Z,8.50
2023-03-12T20:50:16.625Z,10.13
2023-03-12T20:53:31.614Z,15.60
2023-03-12T20:56:43.782Z,10.43
2023-03-12T20:59:43.690Z,11.93
2023-03-12T21:02:59.657Z,12.70
2023-03-12T21:06:18.681Z,8.00
2023-03-12T21:09:42.759Z,8.27
2023-03-12T21:12:42.756Z,19.63
2023-03-12T21:16:09.769Z,8.10
2023-03-12T21:19:22.516Z,11.37
2023-03-12T21:22:47.731Z,8.77
2023-03-12T21:25:59.761Z,7.40
2023-03-12T21:29:23.768Z,7.65
2023-03-12T21:32:23.846Z,6.97
2023-03-12T21:35:47.835Z,3.37
2023-03-12T21:39:01.772Z,6.93
2023-03-12T21:42:13.809Z,5.50
2023-03-12T21:45:13.847Z,5.43
2023-03-12T21:48:25.822Z,4.37
2023-03-12T21:51:39.641Z,7.97
2023-03-12T21:55:04.847Z,5.80
2023-03-12T21:58:04.812Z,4.70
2023-03-12T22:01:29.914Z,5.27
2023-03-12T22:04:41.944Z,4.43
2023-03-12T22:07:53.849Z,9.83
2023-03-12T22:11:19.966Z,6.77
2023-03-12T22:14:19.850Z,8.03
2023-03-12T22:17:31.908Z,8.83
2023-03-12T22:20:32.951Z,8.40
2023-03-12T22:23:44.927Z,16.00
2023-03-12T22:26:58.945Z,10.37
2023-03-12T22:30:10.941Z,11.80
2023-03-12T22:33:14.025Z,14.70
2023-03-12T22:36:41.049Z,24.20
2023-03-12T22:39:40.932Z,18.40
2023-03-12T22:43:06.999Z,18.80
2023-03-12T22:46:18.999Z,14.60
2023-03-12T22:49:31.030Z,13.65
2023-03-12T22:52:33.966Z,16.93
2023-03-12T22:55:45.989Z,18.87
2023-03-12T22:59:00.022Z,25.83
2023-03-12T23:02:12.108Z,18.43
2023-03-12T23:05:31.015Z,10.80
2023-03-12T23:08:55.075Z,23.10
2023-03-12T23:11:55.097Z,14.20
2023-03-12T23:15:24.543Z,20.73
2023-03-12T23:18:22.099Z,18.63
2023-03-12T23:21:47.084Z,17.17
2023-03-12T23:24:59.131Z,22.57
2023-03-12T23:28:12.134Z,12.50
2023-03-12T23:31:26.169Z,26.30
2023-03-12T23:34:38.185Z,22.23
2023-03-12T23:37:41.163Z,16.10
2023-03-12T23:40:53.241Z,13.60
2023-03-12T23:44:05.159Z,18.07
2023-03-12T23:47:31.177Z,14.27
2023-03-12T23:50:34.174Z,18.47
2023-03-12T23:53:58.269Z,14.37
2023-03-12T23:56:59.200Z,16.07
